KJXN

Jackson County-Reynolds Field Airport

Jackson, Michigan, USA
METAR KJXN 181256Z 00000KT 10SM OVC017 M07/M08 A3025 RMK AO2 SLP257 I1000 T10671083
Observed Flight Rules
Dec-18 @ 12:56 UTC (29 minutes ago) Marginal Visual Flight Rules
Visibility Clouds
10 miles
  • Overcast at 1,700' AGL
Temperatures Readings
Current -7°C / 19°F
Dewpoint -8°C / 18°F
Humidity 93%
Altimeter 30.25" Hg
Pressure 1025.7 hPa
Elevation 305
METAR KJXN 181256Z 00000KT 10SM OVC017 M07/M08 A3025 RMK AO2 SLP257 I1000 T10671083
Observed Flight Rules
Dec-18 @ 12:56 UTC
(29 minutes ago)
MVFR
Clouds
  • Overcast at 1,700' AGL
Temperature Dewpoint
-7°C / 19°F -8°C / 18°F
Humidity Altimeter Pressure
93% 30.25" Hg 1025.7 hPa